sensor_id;sensor_type;location;lat;lon;timestamp;P1;durP1;ratioP1;P2;durP2;ratioP2
8895;SDS011;4484;48.928;10.066;2023-02-03T00:02:00;3.20;;;2.40;;
8895;SDS011;4484;48.928;10.066;2023-02-03T00:04:28;4.60;;;2.33;;
8895;SDS011;4484;48.928;10.066;2023-02-03T00:06:54;2.43;;;2.00;;
8895;SDS011;4484;48.928;10.066;2023-02-03T00:09:26;4.67;;;2.20;;
8895;SDS011;4484;48.928;10.066;2023-02-03T00:11:59;6.07;;;1.90;;
8895;SDS011;4484;48.928;10.066;2023-02-03T00:14:35;4.17;;;2.20;;
8895;SDS011;4484;48.928;10.066;2023-02-03T00:17:04;3.73;;;2.23;;
8895;SDS011;4484;48.928;10.066;2023-02-03T00:19:31;3.43;;;2.20;;
8895;SDS011;4484;48.928;10.066;2023-02-03T00:21:58;4.77;;;1.97;;
8895;SDS011;4484;48.928;10.066;2023-02-03T00:24:25;3.73;;;2.20;;
8895;SDS011;4484;48.928;10.066;2023-02-03T00:26:52;4.67;;;2.20;;
8895;SDS011;4484;48.928;10.066;2023-02-03T00:29:19;2.60;;;1.97;;
8895;SDS011;4484;48.928;10.066;2023-02-03T00:31:51;2.33;;;2.00;;
8895;SDS011;4484;48.928;10.066;2023-02-03T00:34:20;2.67;;;2.03;;
8895;SDS011;4484;48.928;10.066;2023-02-03T00:36:47;7.87;;;2.60;;
8895;SDS011;4484;48.928;10.066;2023-02-03T00:39:14;2.47;;;2.27;;
8895;SDS011;4484;48.928;10.066;2023-02-03T00:41:41;3.03;;;2.00;;
8895;SDS011;4484;48.928;10.066;2023-02-03T00:44:08;2.07;;;1.70;;
8895;SDS011;4484;48.928;10.066;2023-02-03T00:46:35;3.90;;;1.97;;
8895;SDS011;4484;48.928;10.066;2023-02-03T00:49:03;2.33;;;1.90;;
8895;SDS011;4484;48.928;10.066;2023-02-03T00:51:30;2.70;;;1.90;;
8895;SDS011;4484;48.928;10.066;2023-02-03T00:53:58;4.00;;;2.37;;
8895;SDS011;4484;48.928;10.066;2023-02-03T00:56:24;2.87;;;1.80;;
8895;SDS011;4484;48.928;10.066;2023-02-03T00:58:51;3.00;;;1.93;;
8895;SDS011;4484;48.928;10.066;2023-02-03T01:01:18;2.93;;;1.50;;
8895;SDS011;4484;48.928;10.066;2023-02-03T01:03:45;2.53;;;1.70;;
8895;SDS011;4484;48.928;10.066;2023-02-03T01:06:19;2.80;;;1.90;;
8895;SDS011;4484;48.928;10.066;2023-02-03T01:08:46;5.50;;;1.90;;
8895;SDS011;4484;48.928;10.066;2023-02-03T01:11:18;3.20;;;1.80;;
8895;SDS011;4484;48.928;10.066;2023-02-03T01:13:47;3.23;;;1.93;;
8895;SDS011;4484;48.928;10.066;2023-02-03T01:16:16;3.37;;;1.87;;
8895;SDS011;4484;48.928;10.066;2023-02-03T01:18:45;2.97;;;1.70;;
8895;SDS011;4484;48.928;10.066;2023-02-03T01:21:19;1.80;;;1.50;;
8895;SDS011;4484;48.928;10.066;2023-02-03T01:23:49;2.17;;;1.53;;
8895;SDS011;4484;48.928;10.066;2023-02-03T01:26:18;4.83;;;1.80;;
8895;SDS011;4484;48.928;10.066;2023-02-03T01:28:52;4.00;;;1.60;;
8895;SDS011;4484;48.928;10.066;2023-02-03T01:31:22;3.53;;;1.60;;
8895;SDS011;4484;48.928;10.066;2023-02-03T01:33:51;2.70;;;1.60;;
8895;SDS011;4484;48.928;10.066;2023-02-03T01:36:20;1.80;;;1.37;;
8895;SDS011;4484;48.928;10.066;2023-02-03T01:38:49;2.43;;;1.57;;
8895;SDS011;4484;48.928;10.066;2023-02-03T01:41:17;5.77;;;1.70;;
8895;SDS011;4484;48.928;10.066;2023-02-03T01:43:47;2.03;;;1.40;;
8895;SDS011;4484;48.928;10.066;2023-02-03T01:49:16;2.43;;;1.40;;
8895;SDS011;4484;48.928;10.066;2023-02-03T01:51:56;1.77;;;1.10;;
8895;SDS011;4484;48.928;10.066;2023-02-03T01:54:27;3.10;;;1.33;;
8895;SDS011;4484;48.928;10.066;2023-02-03T01:57:19;1.60;;;1.20;;
8895;SDS011;4484;48.928;10.066;2023-02-03T01:59:50;2.63;;;1.30;;
8895;SDS011;4484;48.928;10.066;2023-02-03T02:02:19;2.43;;;1.03;;
8895;SDS011;4484;48.928;10.066;2023-02-03T02:04:51;3.33;;;1.13;;
8895;SDS011;4484;48.928;10.066;2023-02-03T02:07:34;2.93;;;1.53;;
8895;SDS011;4484;48.928;10.066;2023-02-03T02:10:03;1.40;;;1.20;;
8895;SDS011;4484;48.928;10.066;2023-02-03T02:12:31;1.13;;;1.07;;
8895;SDS011;4484;48.928;10.066;2023-02-03T02:14:58;7.23;;;1.47;;
8895;SDS011;4484;48.928;10.066;2023-02-03T02:31:17;1.47;;;1.30;;
8895;SDS011;4484;48.928;10.066;2023-02-03T02:39:52;2.83;;;1.43;;
8895;SDS011;4484;48.928;10.066;2023-02-03T02:42:35;2.47;;;1.50;;
8895;SDS011;4484;48.928;10.066;2023-02-03T02:45:16;1.40;;;1.20;;
8895;SDS011;4484;48.928;10.066;2023-02-03T02:48:25;1.33;;;1.17;;
8895;SDS011;4484;48.928;10.066;2023-02-03T02:50:57;1.70;;;1.10;;
8895;SDS011;4484;48.928;10.066;2023-02-03T02:53:27;1.80;;;1.30;;
8895;SDS011;4484;48.928;10.066;2023-02-03T02:55:59;1.93;;;1.10;;
8895;SDS011;4484;48.928;10.066;2023-02-03T02:58:33;1.40;;;1.07;;
8895;SDS011;4484;48.928;10.066;2023-02-03T03:01:03;3.80;;;1.43;;
8895;SDS011;4484;48.928;10.066;2023-02-03T03:03:36;3.23;;;1.60;;
8895;SDS011;4484;48.928;10.066;2023-02-03T03:06:07;2.23;;;1.40;;
8895;SDS011;4484;48.928;10.066;2023-02-03T03:11:09;3.60;;;1.50;;
8895;SDS011;4484;48.928;10.066;2023-02-03T03:13:47;2.03;;;1.40;;
8895;SDS011;4484;48.928;10.066;2023-02-03T03:16:17;2.57;;;1.57;;
8895;SDS011;4484;48.928;10.066;2023-02-03T03:18:50;1.97;;;1.63;;
8895;SDS011;4484;48.928;10.066;2023-02-03T03:21:23;1.73;;;1.57;;
8895;SDS011;4484;48.928;10.066;2023-02-03T03:23:54;2.80;;;1.77;;
8895;SDS011;4484;48.928;10.066;2023-02-03T03:26:34;1.50;;;1.40;;
8895;SDS011;4484;48.928;10.066;2023-02-03T03:29:18;1.53;;;1.30;;
8895;SDS011;4484;48.928;10.066;2023-02-03T03:32:10;1.93;;;1.73;;
8895;SDS011;4484;48.928;10.066;2023-02-03T03:34:37;2.10;;;1.37;;
8895;SDS011;4484;48.928;10.066;2023-02-03T03:37:10;3.60;;;1.40;;
8895;SDS011;4484;48.928;10.066;2023-02-03T03:39:58;1.60;;;1.50;;
8895;SDS011;4484;48.928;10.066;2023-02-03T03:42:44;3.80;;;2.00;;
8895;SDS011;4484;48.928;10.066;2023-02-03T03:51:05;1.37;;;1.27;;
8895;SDS011;4484;48.928;10.066;2023-02-03T03:53:37;1.57;;;1.20;;
8895;SDS011;4484;48.928;10.066;2023-02-03T03:56:08;1.43;;;1.30;;
8895;SDS011;4484;48.928;10.066;2023-02-03T03:58:41;2.13;;;1.70;;
8895;SDS011;4484;48.928;10.066;2023-02-03T04:01:12;1.70;;;1.30;;
8895;SDS011;4484;48.928;10.066;2023-02-03T04:03:42;2.67;;;1.57;;
8895;SDS011;4484;48.928;10.066;2023-02-03T04:06:12;3.17;;;1.40;;
8895;SDS011;4484;48.928;10.066;2023-02-03T04:08:39;4.73;;;1.47;;
8895;SDS011;4484;48.928;10.066;2023-02-03T04:11:06;2.67;;;1.30;;
8895;SDS011;4484;48.928;10.066;2023-02-03T04:13:33;2.90;;;1.37;;
8895;SDS011;4484;48.928;10.066;2023-02-03T04:16:00;2.63;;;1.53;;
8895;SDS011;4484;48.928;10.066;2023-02-03T04:18:27;2.67;;;1.53;;
8895;SDS011;4484;48.928;10.066;2023-02-03T04:20:53;1.70;;;1.60;;
8895;SDS011;4484;48.928;10.066;2023-02-03T04:23:20;1.40;;;1.27;;
8895;SDS011;4484;48.928;10.066;2023-02-03T04:25:47;3.20;;;1.30;;
8895;SDS011;4484;48.928;10.066;2023-02-03T04:28:14;3.40;;;1.30;;
8895;SDS011;4484;48.928;10.066;2023-02-03T04:30:41;2.30;;;1.40;;
8895;SDS011;4484;48.928;10.066;2023-02-03T04:33:07;1.83;;;1.40;;
8895;SDS011;4484;48.928;10.066;2023-02-03T04:35:34;2.73;;;1.43;;
8895;SDS011;4484;48.928;10.066;2023-02-03T04:38:01;2.93;;;1.40;;
8895;SDS011;4484;48.928;10.066;2023-02-03T04:40:28;1.33;;;1.23;;
8895;SDS011;4484;48.928;10.066;2023-02-03T04:42:55;1.73;;;1.30;;
8895;SDS011;4484;48.928;10.066;2023-02-03T04:45:22;1.93;;;1.33;;
8895;SDS011;4484;48.928;10.066;2023-02-03T04:47:52;1.63;;;1.50;;
8895;SDS011;4484;48.928;10.066;2023-02-03T04:50:19;3.60;;;1.70;;
8895;SDS011;4484;48.928;10.066;2023-02-03T04:52:46;3.10;;;1.40;;
8895;SDS011;4484;48.928;10.066;2023-02-03T04:55:13;4.60;;;2.93;;
8895;SDS011;4484;48.928;10.066;2023-02-03T04:57:40;3.23;;;2.00;;
8895;SDS011;4484;48.928;10.066;2023-02-03T05:00:07;3.60;;;2.47;;
8895;SDS011;4484;48.928;10.066;2023-02-03T05:02:34;4.97;;;3.33;;
8895;SDS011;4484;48.928;10.066;2023-02-03T05:05:01;1.60;;;1.47;;
8895;SDS011;4484;48.928;10.066;2023-02-03T05:07:28;1.10;;;1.00;;
8895;SDS011;4484;48.928;10.066;2023-02-03T05:09:55;3.07;;;1.13;;
8895;SDS011;4484;48.928;10.066;2023-02-03T05:12:22;3.43;;;1.27;;
8895;SDS011;4484;48.928;10.066;2023-02-03T05:14:49;2.37;;;1.10;;
8895;SDS011;4484;48.928;10.066;2023-02-03T05:17:15;1.40;;;1.20;;
8895;SDS011;4484;48.928;10.066;2023-02-03T05:19:42;1.80;;;1.20;;
8895;SDS011;4484;48.928;10.066;2023-02-03T05:22:09;1.30;;;1.20;;
8895;SDS011;4484;48.928;10.066;2023-02-03T05:24:36;3.33;;;1.20;;
8895;SDS011;4484;48.928;10.066;2023-02-03T05:27:03;1.10;;;1.00;;
8895;SDS011;4484;48.928;10.066;2023-02-03T05:29:29;0.87;;;0.87;;
8895;SDS011;4484;48.928;10.066;2023-02-03T05:31:56;3.43;;;1.00;;
8895;SDS011;4484;48.928;10.066;2023-02-03T05:34:23;1.03;;;0.70;;
8895;SDS011;4484;48.928;10.066;2023-02-03T05:36:50;0.77;;;0.77;;
8895;SDS011;4484;48.928;10.066;2023-02-03T05:39:17;1.10;;;1.00;;
8895;SDS011;4484;48.928;10.066;2023-02-03T05:41:44;4.87;;;1.80;;
8895;SDS011;4484;48.928;10.066;2023-02-03T05:44:24;1.80;;;1.27;;
8895;SDS011;4484;48.928;10.066;2023-02-03T05:46:53;1.00;;;0.80;;
8895;SDS011;4484;48.928;10.066;2023-02-03T05:49:21;1.40;;;1.30;;
8895;SDS011;4484;48.928;10.066;2023-02-03T05:51:51;1.20;;;0.93;;
8895;SDS011;4484;48.928;10.066;2023-02-03T05:54:18;3.47;;;1.10;;
8895;SDS011;4484;48.928;10.066;2023-02-03T05:56:45;0.80;;;0.80;;
8895;SDS011;4484;48.928;10.066;2023-02-03T05:59:12;0.70;;;0.70;;
8895;SDS011;4484;48.928;10.066;2023-02-03T06:01:39;1.50;;;0.80;;
8895;SDS011;4484;48.928;10.066;2023-02-03T06:04:06;0.90;;;0.80;;
8895;SDS011;4484;48.928;10.066;2023-02-03T06:06:33;0.87;;;0.87;;
8895;SDS011;4484;48.928;10.066;2023-02-03T06:09:00;1.00;;;0.80;;
8895;SDS011;4484;48.928;10.066;2023-02-03T06:11:29;1.77;;;0.80;;
8895;SDS011;4484;48.928;10.066;2023-02-03T06:13:56;1.00;;;0.90;;
8895;SDS011;4484;48.928;10.066;2023-02-03T06:16:25;1.47;;;1.00;;
8895;SDS011;4484;48.928;10.066;2023-02-03T06:18:53;0.97;;;0.70;;
8895;SDS011;4484;48.928;10.066;2023-02-03T06:21:23;1.00;;;1.00;;
8895;SDS011;4484;48.928;10.066;2023-02-03T06:23:50;0.70;;;0.70;;
8895;SDS011;4484;48.928;10.066;2023-02-03T06:26:17;1.27;;;0.77;;
8895;SDS011;4484;48.928;10.066;2023-02-03T06:28:43;1.37;;;0.90;;
8895;SDS011;4484;48.928;10.066;2023-02-03T06:31:10;1.20;;;1.10;;
8895;SDS011;4484;48.928;10.066;2023-02-03T06:33:37;1.00;;;0.80;;
8895;SDS011;4484;48.928;10.066;2023-02-03T06:36:04;3.67;;;1.00;;
8895;SDS011;4484;48.928;10.066;2023-02-03T06:38:31;1.60;;;1.10;;
8895;SDS011;4484;48.928;10.066;2023-02-03T06:40:58;1.57;;;1.30;;
8895;SDS011;4484;48.928;10.066;2023-02-03T06:43:24;1.00;;;0.90;;
8895;SDS011;4484;48.928;10.066;2023-02-03T06:45:51;1.80;;;1.13;;
8895;SDS011;4484;48.928;10.066;2023-02-03T06:48:18;2.50;;;1.10;;
8895;SDS011;4484;48.928;10.066;2023-02-03T06:50:45;1.40;;;1.30;;
8895;SDS011;4484;48.928;10.066;2023-02-03T06:53:14;1.57;;;1.30;;
8895;SDS011;4484;48.928;10.066;2023-02-03T06:55:40;1.20;;;1.10;;
8895;SDS011;4484;48.928;10.066;2023-02-03T06:58:07;1.33;;;1.20;;
8895;SDS011;4484;48.928;10.066;2023-02-03T07:00:34;1.77;;;1.47;;
8895;SDS011;4484;48.928;10.066;2023-02-03T07:03:01;1.47;;;1.37;;
8895;SDS011;4484;48.928;10.066;2023-02-03T07:05:28;2.83;;;1.20;;
8895;SDS011;4484;48.928;10.066;2023-02-03T07:07:55;1.87;;;1.43;;
8895;SDS011;4484;48.928;10.066;2023-02-03T07:10:22;4.80;;;1.90;;
8895;SDS011;4484;48.928;10.066;2023-02-03T07:12:49;2.33;;;1.60;;
8895;SDS011;4484;48.928;10.066;2023-02-03T07:15:17;2.60;;;1.50;;
8895;SDS011;4484;48.928;10.066;2023-02-03T07:17:45;2.37;;;1.57;;
8895;SDS011;4484;48.928;10.066;2023-02-03T07:20:20;1.43;;;1.33;;
8895;SDS011;4484;48.928;10.066;2023-02-03T07:22:51;3.93;;;1.70;;
8895;SDS011;4484;48.928;10.066;2023-02-03T07:25:19;2.93;;;2.20;;
8895;SDS011;4484;48.928;10.066;2023-02-03T07:27:46;2.60;;;1.70;;
8895;SDS011;4484;48.928;10.066;2023-02-03T07:30:13;2.00;;;1.80;;
8895;SDS011;4484;48.928;10.066;2023-02-03T07:32:40;1.70;;;1.20;;
8895;SDS011;4484;48.928;10.066;2023-02-03T07:35:12;2.20;;;1.87;;
8895;SDS011;4484;48.928;10.066;2023-02-03T07:37:39;5.37;;;2.10;;
8895;SDS011;4484;48.928;10.066;2023-02-03T07:40:07;4.40;;;2.03;;
8895;SDS011;4484;48.928;10.066;2023-02-03T07:42:34;3.03;;;1.90;;
8895;SDS011;4484;48.928;10.066;2023-02-03T07:45:01;5.40;;;2.00;;
8895;SDS011;4484;48.928;10.066;2023-02-03T07:47:28;3.60;;;1.90;;
8895;SDS011;4484;48.928;10.066;2023-02-03T07:49:55;2.23;;;1.77;;
8895;SDS011;4484;48.928;10.066;2023-02-03T07:52:21;3.23;;;1.90;;
8895;SDS011;4484;48.928;10.066;2023-02-03T07:54:48;2.93;;;2.07;;
8895;SDS011;4484;48.928;10.066;2023-02-03T07:57:15;2.77;;;1.87;;
8895;SDS011;4484;48.928;10.066;2023-02-03T07:59:42;5.83;;;2.63;;
8895;SDS011;4484;48.928;10.066;2023-02-03T08:02:09;3.73;;;2.00;;
8895;SDS011;4484;48.928;10.066;2023-02-03T08:04:37;6.57;;;2.00;;
8895;SDS011;4484;48.928;10.066;2023-02-03T08:07:04;2.87;;;2.00;;
8895;SDS011;4484;48.928;10.066;2023-02-03T08:09:30;5.43;;;2.47;;
8895;SDS011;4484;48.928;10.066;2023-02-03T08:11:57;2.13;;;1.90;;
8895;SDS011;4484;48.928;10.066;2023-02-03T08:14:24;7.23;;;4.07;;
8895;SDS011;4484;48.928;10.066;2023-02-03T08:16:51;4.90;;;2.57;;
8895;SDS011;4484;48.928;10.066;2023-02-03T08:19:17;10.40;;;4.23;;
8895;SDS011;4484;48.928;10.066;2023-02-03T08:21:44;8.50;;;3.00;;
8895;SDS011;4484;48.928;10.066;2023-02-03T08:24:11;3.37;;;2.00;;
8895;SDS011;4484;48.928;10.066;2023-02-03T08:26:38;4.17;;;2.33;;
8895;SDS011;4484;48.928;10.066;2023-02-03T08:29:04;4.37;;;2.10;;
8895;SDS011;4484;48.928;10.066;2023-02-03T08:31:32;4.43;;;2.50;;
8895;SDS011;4484;48.928;10.066;2023-02-03T08:33:59;2.10;;;1.57;;
8895;SDS011;4484;48.928;10.066;2023-02-03T08:36:26;5.33;;;1.80;;
8895;SDS011;4484;48.928;10.066;2023-02-03T08:38:53;1.80;;;1.53;;
8895;SDS011;4484;48.928;10.066;2023-02-03T08:41:20;2.27;;;1.30;;
8895;SDS011;4484;48.928;10.066;2023-02-03T08:43:46;2.07;;;1.57;;
8895;SDS011;4484;48.928;10.066;2023-02-03T08:46:13;2.70;;;1.63;;
8895;SDS011;4484;48.928;10.066;2023-02-03T08:48:40;2.50;;;2.10;;
8895;SDS011;4484;48.928;10.066;2023-02-03T08:51:14;1.50;;;1.37;;
8895;SDS011;4484;48.928;10.066;2023-02-03T08:53:42;2.70;;;1.30;;
8895;SDS011;4484;48.928;10.066;2023-02-03T08:56:10;1.87;;;1.17;;
8895;SDS011;4484;48.928;10.066;2023-02-03T08:58:38;3.20;;;1.20;;
8895;SDS011;4484;48.928;10.066;2023-02-03T09:01:12;3.30;;;1.03;;
8895;SDS011;4484;48.928;10.066;2023-02-03T09:03:40;2.17;;;1.30;;
8895;SDS011;4484;48.928;10.066;2023-02-03T09:06:07;1.57;;;1.10;;
8895;SDS011;4484;48.928;10.066;2023-02-03T09:08:36;2.03;;;1.00;;
8895;SDS011;4484;48.928;10.066;2023-02-03T09:11:10;2.07;;;1.50;;
8895;SDS011;4484;48.928;10.066;2023-02-03T09:13:39;1.20;;;1.10;;
8895;SDS011;4484;48.928;10.066;2023-02-03T09:16:06;1.33;;;1.10;;
8895;SDS011;4484;48.928;10.066;2023-02-03T09:18:33;2.00;;;1.40;;
8895;SDS011;4484;48.928;10.066;2023-02-03T09:21:05;1.30;;;1.20;;
8895;SDS011;4484;48.928;10.066;2023-02-03T09:23:34;1.47;;;1.07;;
8895;SDS011;4484;48.928;10.066;2023-02-03T09:26:04;1.60;;;1.43;;
8895;SDS011;4484;48.928;10.066;2023-02-03T09:28:32;1.50;;;1.20;;
8895;SDS011;4484;48.928;10.066;2023-02-03T09:31:00;2.60;;;1.17;;
8895;SDS011;4484;48.928;10.066;2023-02-03T09:33:28;1.27;;;1.17;;
8895;SDS011;4484;48.928;10.066;2023-02-03T09:35:55;3.20;;;1.30;;
8895;SDS011;4484;48.928;10.066;2023-02-03T09:38:23;1.20;;;1.10;;
8895;SDS011;4484;48.928;10.066;2023-02-03T09:40:53;1.83;;;1.20;;
8895;SDS011;4484;48.928;10.066;2023-02-03T09:43:37;1.80;;;1.27;;
8895;SDS011;4484;48.928;10.066;2023-02-03T09:48:52;2.20;;;1.60;;
8895;SDS011;4484;48.928;10.066;2023-02-03T09:51:51;4.43;;;2.20;;
8895;SDS011;4484;48.928;10.066;2023-02-03T09:54:30;2.40;;;1.63;;
8895;SDS011;4484;48.928;10.066;2023-02-03T09:57:18;2.40;;;1.20;;
8895;SDS011;4484;48.928;10.066;2023-02-03T09:59:48;4.83;;;1.87;;
8895;SDS011;4484;48.928;10.066;2023-02-03T10:10:37;1.77;;;1.30;;
8895;SDS011;4484;48.928;10.066;2023-02-03T10:13:09;6.73;;;1.40;;
8895;SDS011;4484;48.928;10.066;2023-02-03T10:18:44;2.17;;;1.40;;
8895;SDS011;4484;48.928;10.066;2023-02-03T10:24:03;2.10;;;1.30;;
8895;SDS011;4484;48.928;10.066;2023-02-03T10:26:34;2.60;;;1.30;;
8895;SDS011;4484;48.928;10.066;2023-02-03T10:29:05;2.20;;;1.33;;
8895;SDS011;4484;48.928;10.066;2023-02-03T10:31:43;2.97;;;1.30;;
8895;SDS011;4484;48.928;10.066;2023-02-03T10:34:13;1.43;;;1.20;;
8895;SDS011;4484;48.928;10.066;2023-02-03T10:36:51;2.00;;;1.30;;
8895;SDS011;4484;48.928;10.066;2023-02-03T10:39:42;2.20;;;1.10;;
8895;SDS011;4484;48.928;10.066;2023-02-03T10:42:11;3.57;;;1.50;;
8895;SDS011;4484;48.928;10.066;2023-02-03T10:44:40;4.53;;;1.50;;
8895;SDS011;4484;48.928;10.066;2023-02-03T10:47:21;2.07;;;1.30;;
8895;SDS011;4484;48.928;10.066;2023-02-03T10:50:14;1.67;;;1.40;;
8895;SDS011;4484;48.928;10.066;2023-02-03T10:52:46;2.60;;;1.57;;
8895;SDS011;4484;48.928;10.066;2023-02-03T10:57:49;1.20;;;1.07;;
8895;SDS011;4484;48.928;10.066;2023-02-03T11:05:26;2.73;;;1.33;;
8895;SDS011;4484;48.928;10.066;2023-02-03T11:07:53;2.17;;;1.27;;
8895;SDS011;4484;48.928;10.066;2023-02-03T11:10:31;1.50;;;1.10;;
8895;SDS011;4484;48.928;10.066;2023-02-03T11:16:05;1.37;;;1.27;;
8895;SDS011;4484;48.928;10.066;2023-02-03T11:21:15;1.53;;;1.10;;
8895;SDS011;4484;48.928;10.066;2023-02-03T11:23:48;2.87;;;1.03;;
8895;SDS011;4484;48.928;10.066;2023-02-03T11:26:20;0.97;;;0.90;;
8895;SDS011;4484;48.928;10.066;2023-02-03T11:28:49;1.20;;;1.10;;
8895;SDS011;4484;48.928;10.066;2023-02-03T11:31:20;1.20;;;1.00;;
8895;SDS011;4484;48.928;10.066;2023-02-03T11:33:51;1.90;;;1.10;;
8895;SDS011;4484;48.928;10.066;2023-02-03T11:36:21;1.47;;;0.90;;
8895;SDS011;4484;48.928;10.066;2023-02-03T11:38:51;1.07;;;0.90;;
8895;SDS011;4484;48.928;10.066;2023-02-03T11:41:35;1.90;;;1.13;;
8895;SDS011;4484;48.928;10.066;2023-02-03T11:44:11;2.20;;;1.00;;
8895;SDS011;4484;48.928;10.066;2023-02-03T11:46:44;1.67;;;1.10;;
8895;SDS011;4484;48.928;10.066;2023-02-03T11:49:27;1.77;;;1.20;;
8895;SDS011;4484;48.928;10.066;2023-02-03T11:55:06;1.97;;;1.50;;
8895;SDS011;4484;48.928;10.066;2023-02-03T11:58:19;2.40;;;1.60;;
8895;SDS011;4484;48.928;10.066;2023-02-03T12:01:35;4.57;;;1.23;;
8895;SDS011;4484;48.928;10.066;2023-02-03T12:04:57;2.57;;;1.50;;
8895;SDS011;4484;48.928;10.066;2023-02-03T12:10:00;2.17;;;1.20;;
8895;SDS011;4484;48.928;10.066;2023-02-03T12:21:36;1.77;;;1.03;;
8895;SDS011;4484;48.928;10.066;2023-02-03T12:29:31;2.83;;;1.67;;
8895;SDS011;4484;48.928;10.066;2023-02-03T12:38:04;3.70;;;0.80;;
8895;SDS011;4484;48.928;10.066;2023-02-03T12:41:00;1.30;;;1.07;;
8895;SDS011;4484;48.928;10.066;2023-02-03T12:43:34;1.00;;;0.90;;
8895;SDS011;4484;48.928;10.066;2023-02-03T12:46:26;1.23;;;0.80;;
8895;SDS011;4484;48.928;10.066;2023-02-03T12:51:46;1.27;;;0.90;;
8895;SDS011;4484;48.928;10.066;2023-02-03T12:54:36;1.90;;;1.10;;
8895;SDS011;4484;48.928;10.066;2023-02-03T12:57:27;1.40;;;1.30;;
8895;SDS011;4484;48.928;10.066;2023-02-03T13:03:05;2.27;;;1.10;;
8895;SDS011;4484;48.928;10.066;2023-02-03T13:05:42;3.93;;;2.20;;
8895;SDS011;4484;48.928;10.066;2023-02-03T13:10:49;3.57;;;2.17;;
8895;SDS011;4484;48.928;10.066;2023-02-03T13:13:28;1.00;;;0.90;;
8895;SDS011;4484;48.928;10.066;2023-02-03T13:16:00;2.93;;;1.33;;
8895;SDS011;4484;48.928;10.066;2023-02-03T13:18:39;1.37;;;1.03;;
8895;SDS011;4484;48.928;10.066;2023-02-03T13:21:12;1.60;;;1.50;;
8895;SDS011;4484;48.928;10.066;2023-02-03T13:23:42;1.20;;;1.10;;
8895;SDS011;4484;48.928;10.066;2023-02-03T13:29:24;1.30;;;0.70;;
8895;SDS011;4484;48.928;10.066;2023-02-03T13:43:22;1.57;;;0.90;;
8895;SDS011;4484;48.928;10.066;2023-02-03T13:46:04;1.00;;;0.70;;
8895;SDS011;4484;48.928;10.066;2023-02-03T13:48:34;0.90;;;0.80;;
8895;SDS011;4484;48.928;10.066;2023-02-03T13:51:06;2.00;;;0.87;;
8895;SDS011;4484;48.928;10.066;2023-02-03T13:53:40;4.87;;;0.90;;
8895;SDS011;4484;48.928;10.066;2023-02-03T13:56:17;1.33;;;1.00;;
8895;SDS011;4484;48.928;10.066;2023-02-03T14:03:58;0.83;;;0.80;;
8895;SDS011;4484;48.928;10.066;2023-02-03T14:09:19;0.97;;;0.80;;
8895;SDS011;4484;48.928;10.066;2023-02-03T14:11:48;1.40;;;0.93;;
8895;SDS011;4484;48.928;10.066;2023-02-03T14:16:51;1.30;;;0.93;;
8895;SDS011;4484;48.928;10.066;2023-02-03T14:24:18;1.43;;;1.10;;
8895;SDS011;4484;48.928;10.066;2023-02-03T14:26:47;0.93;;;0.87;;
8895;SDS011;4484;48.928;10.066;2023-02-03T14:29:23;1.20;;;1.03;;
8895;SDS011;4484;48.928;10.066;2023-02-03T14:32:01;1.07;;;0.80;;
8895;SDS011;4484;48.928;10.066;2023-02-03T14:34:43;1.30;;;0.83;;
8895;SDS011;4484;48.928;10.066;2023-02-03T14:46:20;1.10;;;0.80;;
8895;SDS011;4484;48.928;10.066;2023-02-03T14:48:36;0.80;;;0.80;;
8895;SDS011;4484;48.928;10.066;2023-02-03T14:59:59;1.13;;;0.80;;
8895;SDS011;4484;48.928;10.066;2023-02-03T15:02:31;1.20;;;0.70;;
8895;SDS011;4484;48.928;10.066;2023-02-03T15:07:48;1.50;;;0.80;;
8895;SDS011;4484;48.928;10.066;2023-02-03T15:10:20;1.70;;;1.20;;
8895;SDS011;4484;48.928;10.066;2023-02-03T15:12:50;0.87;;;0.80;;
8895;SDS011;4484;48.928;10.066;2023-02-03T15:15:25;2.20;;;0.80;;
8895;SDS011;4484;48.928;10.066;2023-02-03T15:17:53;1.90;;;1.30;;
8895;SDS011;4484;48.928;10.066;2023-02-03T15:23:50;1.63;;;1.20;;
8895;SDS011;4484;48.928;10.066;2023-02-03T15:26:13;1.23;;;0.90;;
8895;SDS011;4484;48.928;10.066;2023-02-03T15:31:54;0.90;;;0.73;;
8895;SDS011;4484;48.928;10.066;2023-02-03T15:34:33;1.23;;;0.70;;
8895;SDS011;4484;48.928;10.066;2023-02-03T15:37:16;0.60;;;0.60;;
8895;SDS011;4484;48.928;10.066;2023-02-03T15:39:58;0.60;;;0.60;;
8895;SDS011;4484;48.928;10.066;2023-02-03T15:42:36;1.30;;;1.00;;
8895;SDS011;4484;48.928;10.066;2023-02-03T15:45:27;0.50;;;0.50;;
8895;SDS011;4484;48.928;10.066;2023-02-03T15:48:04;1.20;;;1.00;;
8895;SDS011;4484;48.928;10.066;2023-02-03T15:51:32;1.37;;;0.90;;
8895;SDS011;4484;48.928;10.066;2023-02-03T15:56:46;0.70;;;0.70;;
8895;SDS011;4484;48.928;10.066;2023-02-03T15:59:31;0.97;;;0.77;;
8895;SDS011;4484;48.928;10.066;2023-02-03T16:02:15;0.60;;;0.60;;
8895;SDS011;4484;48.928;10.066;2023-02-03T16:05:28;1.23;;;0.70;;
8895;SDS011;4484;48.928;10.066;2023-02-03T16:07:56;0.80;;;0.80;;
8895;SDS011;4484;48.928;10.066;2023-02-03T16:10:43;1.13;;;0.83;;
8895;SDS011;4484;48.928;10.066;2023-02-03T16:13:24;0.70;;;0.70;;
8895;SDS011;4484;48.928;10.066;2023-02-03T16:16:03;0.83;;;0.77;;
8895;SDS011;4484;48.928;10.066;2023-02-03T16:18:35;1.57;;;1.10;;
8895;SDS011;4484;48.928;10.066;2023-02-03T16:21:03;1.17;;;1.03;;
8895;SDS011;4484;48.928;10.066;2023-02-03T16:23:31;1.67;;;1.57;;
8895;SDS011;4484;48.928;10.066;2023-02-03T16:26:18;1.83;;;1.00;;
8895;SDS011;4484;48.928;10.066;2023-02-03T16:28:56;1.53;;;0.80;;
8895;SDS011;4484;48.928;10.066;2023-02-03T16:31:52;1.10;;;1.00;;
8895;SDS011;4484;48.928;10.066;2023-02-03T16:34:38;3.87;;;1.03;;
8895;SDS011;4484;48.928;10.066;2023-02-03T16:37:25;0.87;;;0.80;;
8895;SDS011;4484;48.928;10.066;2023-02-03T16:40:21;0.70;;;0.70;;
8895;SDS011;4484;48.928;10.066;2023-02-03T16:43:11;0.77;;;0.60;;
8895;SDS011;4484;48.928;10.066;2023-02-03T16:45:58;1.20;;;1.00;;
8895;SDS011;4484;48.928;10.066;2023-02-03T16:48:44;0.80;;;0.80;;
8895;SDS011;4484;48.928;10.066;2023-02-03T16:51:36;1.20;;;1.00;;
8895;SDS011;4484;48.928;10.066;2023-02-03T16:54:05;1.03;;;0.80;;
8895;SDS011;4484;48.928;10.066;2023-02-03T16:56:36;1.00;;;0.80;;
8895;SDS011;4484;48.928;10.066;2023-02-03T16:59:03;0.83;;;0.73;;
8895;SDS011;4484;48.928;10.066;2023-02-03T17:01:29;1.13;;;1.03;;
8895;SDS011;4484;48.928;10.066;2023-02-03T17:03:56;1.10;;;1.00;;
8895;SDS011;4484;48.928;10.066;2023-02-03T17:06:23;1.37;;;0.93;;
8895;SDS011;4484;48.928;10.066;2023-02-03T17:08:50;1.20;;;1.00;;
8895;SDS011;4484;48.928;10.066;2023-02-03T17:11:18;0.97;;;0.90;;
8895;SDS011;4484;48.928;10.066;2023-02-03T17:13:47;0.93;;;0.83;;
8895;SDS011;4484;48.928;10.066;2023-02-03T17:16:21;0.90;;;0.90;;
8895;SDS011;4484;48.928;10.066;2023-02-03T17:18:50;1.23;;;1.13;;
8895;SDS011;4484;48.928;10.066;2023-02-03T17:21:22;1.10;;;1.00;;
8895;SDS011;4484;48.928;10.066;2023-02-03T17:23:53;1.70;;;1.50;;
8895;SDS011;4484;48.928;10.066;2023-02-03T17:26:20;1.33;;;1.20;;
8895;SDS011;4484;48.928;10.066;2023-02-03T17:28:47;0.80;;;0.80;;
8895;SDS011;4484;48.928;10.066;2023-02-03T17:31:15;0.80;;;0.80;;
8895;SDS011;4484;48.928;10.066;2023-02-03T17:33:43;5.00;;;1.63;;
8895;SDS011;4484;48.928;10.066;2023-02-03T17:36:11;1.20;;;1.10;;
8895;SDS011;4484;48.928;10.066;2023-02-03T17:38:43;1.17;;;1.07;;
8895;SDS011;4484;48.928;10.066;2023-02-03T17:41:29;1.20;;;1.10;;
8895;SDS011;4484;48.928;10.066;2023-02-03T17:44:14;4.60;;;0.93;;
8895;SDS011;4484;48.928;10.066;2023-02-03T17:46:58;0.90;;;0.90;;
8895;SDS011;4484;48.928;10.066;2023-02-03T17:49:43;1.93;;;1.23;;
8895;SDS011;4484;48.928;10.066;2023-02-03T17:52:30;2.60;;;1.27;;
8895;SDS011;4484;48.928;10.066;2023-02-03T17:55:14;1.20;;;1.10;;
8895;SDS011;4484;48.928;10.066;2023-02-03T17:57:42;1.20;;;1.10;;
8895;SDS011;4484;48.928;10.066;2023-02-03T18:00:09;2.07;;;1.27;;
8895;SDS011;4484;48.928;10.066;2023-02-03T18:02:40;1.30;;;1.20;;
8895;SDS011;4484;48.928;10.066;2023-02-03T18:05:08;1.20;;;1.00;;
8895;SDS011;4484;48.928;10.066;2023-02-03T18:07:35;1.13;;;1.00;;